createdAt,value
2019-04-26T00:00:10.199Z,36.45
2019-04-26T00:02:43.925Z,37.40
2019-04-26T00:05:12.797Z,36.33
2019-04-26T00:07:42.188Z,34.35
2019-04-26T00:10:16.054Z,36.68
2019-04-26T00:12:49.182Z,33.33
2019-04-26T00:15:34.449Z,29.15
2019-04-26T00:18:05.130Z,29.80
2019-04-26T00:20:33.668Z,28.70
2019-04-26T00:23:02.276Z,31.00
2019-04-26T00:25:30.885Z,29.23
2019-04-26T00:27:59.431Z,31.15
2019-04-26T00:30:28.039Z,28.55
2019-04-26T00:32:56.686Z,28.10
2019-04-26T00:35:25.218Z,27.10
2019-04-26T00:37:53.848Z,29.30
2019-04-26T00:40:22.539Z,28.87
2019-04-26T00:42:52.095Z,24.67
2019-04-26T00:45:22.939Z,29.37
2019-04-26T00:47:52.508Z,27.17
2019-04-26T00:50:21.426Z,30.35
2019-04-26T00:52:51.813Z,22.75
2019-04-26T00:55:21.981Z,25.90
2019-04-26T00:57:51.513Z,23.87
2019-04-26T01:00:21.593Z,28.38
2019-04-26T01:02:52.117Z,23.32
2019-04-26T01:05:21.218Z,32.45
2019-04-26T01:07:51.405Z,26.27
2019-04-26T01:10:19.973Z,27.27
2019-04-26T01:12:48.615Z,19.52
2019-04-26T01:15:19.862Z,19.98
2019-04-26T01:17:47.637Z,27.00
2019-04-26T01:20:18.875Z,20.45
2019-04-26T01:22:51.081Z,31.02
2019-04-26T01:25:31.522Z,23.38
2019-04-26T01:28:00.935Z,25.17
2019-04-26T01:30:32.447Z,20.48
2019-04-26T01:33:03.258Z,29.63
2019-04-26T01:35:32.172Z,22.82
2019-04-26T01:38:03.757Z,22.87
2019-04-26T01:40:34.008Z,23.75
2019-04-26T01:43:21.569Z,21.10
2019-04-26T01:46:07.797Z,24.55
2019-04-26T01:48:58.737Z,23.07
2019-04-26T01:51:41.927Z,21.80
2019-04-26T01:54:13.455Z,21.17
2019-04-26T01:56:42.768Z,23.62
2019-04-26T01:59:14.288Z,24.40
2019-04-26T02:01:47.795Z,25.57
2019-04-26T02:04:16.531Z,22.22
2019-04-26T02:06:45.138Z,25.82
2019-04-26T02:09:14.120Z,26.30
2019-04-26T02:11:42.836Z,20.85
2019-04-26T02:14:11.550Z,21.62
2019-04-26T02:16:41.170Z,21.12
2019-04-26T02:19:09.788Z,24.02
2019-04-26T02:21:46.650Z,23.70
2019-04-26T02:24:30.127Z,19.50
2019-04-26T02:27:01.576Z,23.47
2019-04-26T02:29:30.434Z,21.95
2019-04-26T02:32:02.176Z,19.82
2019-04-26T02:34:37.175Z,19.30
2019-04-26T02:37:07.431Z,22.05
2019-04-26T02:39:38.941Z,19.32
2019-04-26T02:42:19.388Z,20.57
2019-04-26T02:44:58.144Z,22.52
2019-04-26T02:47:42.922Z,27.52
2019-04-26T02:50:36.569Z,17.05
2019-04-26T02:53:31.646Z,24.82
2019-04-26T02:56:28.234Z,30.75
2019-04-26T02:59:00.277Z,24.87
2019-04-26T03:01:31.793Z,22.32
2019-04-26T03:04:00.413Z,17.67
2019-04-26T03:06:34.245Z,25.65
2019-04-26T03:09:07.151Z,29.20
2019-04-26T03:11:50.622Z,21.52
2019-04-26T03:14:21.487Z,21.12
2019-04-26T03:17:09.501Z,33.67
2019-04-26T03:20:00.799Z,18.20
2019-04-26T03:22:42.560Z,21.05
2019-04-26T03:25:35.210Z,24.05
2019-04-26T03:28:25.506Z,21.93
2019-04-26T03:31:03.452Z,25.62
2019-04-26T03:33:53.968Z,20.43
2019-04-26T03:36:44.270Z,24.15
2019-04-26T03:39:20.186Z,22.48
2019-04-26T03:42:11.551Z,30.62
2019-04-26T03:44:59.396Z,23.80
2019-04-26T03:47:35.614Z,33.13
2019-04-26T03:50:15.610Z,21.85
2019-04-26T03:52:57.011Z,28.40
2019-04-26T03:55:30.168Z,26.95
2019-04-26T03:58:15.558Z,35.00
2019-04-26T04:00:56.593Z,23.75
2019-04-26T04:03:32.494Z,23.02
2019-04-26T04:06:03.745Z,25.75
2019-04-26T04:08:56.260Z,28.65
2019-04-26T04:11:44.319Z,25.55
2019-04-26T04:14:30.606Z,27.98
2019-04-26T04:17:09.361Z,31.80
2019-04-26T04:19:59.225Z,25.60
2019-04-26T04:22:33.526Z,24.10
2019-04-26T04:25:05.324Z,26.45
2019-04-26T04:27:47.284Z,21.82
2019-04-26T04:30:35.227Z,28.77
2019-04-26T04:33:13.122Z,29.85
2019-04-26T04:35:46.084Z,28.32
2019-04-26T04:38:34.177Z,34.78
2019-04-26T04:41:16.297Z,24.43
2019-04-26T04:43:53.263Z,26.02
2019-04-26T04:47:03.803Z,25.15
2019-04-26T04:49:59.400Z,27.00
2019-04-26T04:52:30.914Z,29.63
2019-04-26T04:55:14.717Z,26.62
2019-04-26T04:57:54.522Z,31.27
2019-04-26T05:00:35.674Z,22.77
2019-04-26T05:03:36.131Z,25.17
2019-04-26T05:06:36.451Z,31.27
2019-04-26T05:09:10.720Z,19.07
2019-04-26T05:11:51.930Z,24.43
2019-04-26T05:14:35.300Z,19.02
2019-04-26T05:17:35.231Z,22.37
2019-04-26T05:20:23.276Z,24.60
2019-04-26T05:23:15.928Z,42.45
2019-04-26T05:25:58.168Z,42.93
2019-04-26T05:28:37.082Z,37.88
2019-04-26T05:31:40.435Z,25.05
2019-04-26T05:34:16.782Z,31.10
2019-04-26T05:36:54.782Z,26.87
2019-04-26T05:39:29.376Z,33.15
2019-04-26T05:42:14.174Z,35.48
2019-04-26T05:45:18.867Z,38.00
2019-04-26T05:48:20.472Z,34.98
2019-04-26T05:51:29.086Z,28.38
2019-04-26T05:54:10.846Z,22.75
2019-04-26T05:56:51.130Z,22.50
2019-04-26T05:59:26.301Z,17.12
2019-04-26T06:02:18.382Z,15.58
2019-04-26T06:05:23.220Z,13.35
2019-04-26T06:08:38.776Z,16.17
2019-04-26T06:11:11.965Z,16.70
2019-04-26T06:14:07.191Z,18.20
2019-04-26T06:17:05.867Z,14.93
2019-04-26T06:20:22.821Z,15.45
2019-04-26T06:22:59.666Z,17.10
2019-04-26T06:25:35.825Z,17.77
2019-04-26T06:28:07.341Z,16.77
2019-04-26T06:30:51.667Z,8.93
2019-04-26T06:33:26.150Z,11.40
2019-04-26T06:35:57.446Z,15.20
2019-04-26T06:38:44.043Z,19.52
2019-04-26T06:41:40.032Z,14.83
2019-04-26T06:44:18.988Z,12.70
2019-04-26T06:46:57.790Z,13.13
2019-04-26T06:49:55.144Z,16.55
2019-04-26T06:52:26.777Z,13.88
2019-04-26T06:55:02.233Z,19.75
2019-04-26T06:58:05.659Z,16.55
2019-04-26T07:00:47.503Z,16.32
2019-04-26T07:03:21.862Z,17.37
2019-04-26T07:06:02.558Z,18.60
2019-04-26T07:08:37.140Z,16.45
2019-04-26T07:11:25.252Z,17.05
2019-04-26T07:14:25.294Z,18.05
2019-04-26T07:17:12.216Z,10.75
2019-04-26T07:20:04.836Z,19.60
2019-04-26T07:23:07.963Z,15.90
2019-04-26T07:26:03.870Z,14.15
2019-04-26T07:28:48.833Z,21.50
2019-04-26T07:31:29.003Z,24.75
2019-04-26T07:34:18.632Z,20.30
2019-04-26T07:36:53.532Z,22.70
2019-04-26T07:39:47.716Z,18.02
2019-04-26T07:42:54.121Z,18.20
2019-04-26T07:45:41.811Z,18.07
2019-04-26T07:48:29.471Z,19.92
2019-04-26T07:51:28.534Z,19.60
2019-04-26T07:54:19.348Z,18.00
2019-04-26T07:57:13.434Z,19.98
2019-04-26T08:00:20.255Z,19.40
2019-04-26T08:02:56.201Z,12.07
2019-04-26T08:05:38.303Z,20.23
2019-04-26T08:08:09.019Z,18.57
2019-04-26T08:10:40.845Z,18.12
2019-04-26T08:13:15.517Z,24.63
2019-04-26T08:15:57.580Z,15.78
2019-04-26T08:18:48.340Z,14.87
2019-04-26T08:21:21.483Z,23.70
2019-04-26T08:23:57.800Z,20.10
2019-04-26T08:26:29.549Z,19.92
2019-04-26T08:29:01.648Z,24.18
2019-04-26T08:31:33.135Z,19.45
2019-04-26T08:34:07.505Z,18.23
2019-04-26T08:36:41.568Z,20.88
2019-04-26T08:39:23.386Z,17.73
2019-04-26T08:41:57.206Z,22.60
2019-04-26T08:44:39.090Z,18.62
2019-04-26T08:47:16.779Z,15.53
2019-04-26T08:49:49.373Z,14.20
2019-04-26T08:52:22.428Z,14.18
2019-04-26T08:54:54.516Z,24.52
2019-04-26T08:57:26.320Z,18.37
2019-04-26T08:59:57.907Z,18.27
2019-04-26T09:02:33.655Z,18.12
2019-04-26T09:05:27.623Z,16.55
2019-04-26T09:07:59.220Z,19.77
2019-04-26T09:10:32.864Z,19.80
2019-04-26T09:13:03.827Z,21.15
2019-04-26T09:15:51.647Z,18.55
2019-04-26T09:18:20.344Z,17.17
2019-04-26T09:20:48.918Z,20.02
2019-04-26T09:23:39.591Z,15.80
2019-04-26T09:26:08.613Z,19.15
2019-04-26T09:28:52.977Z,14.85
2019-04-26T09:31:22.129Z,23.02
2019-04-26T09:33:55.113Z,20.75
2019-04-26T09:36:23.895Z,17.12
2019-04-26T09:38:52.439Z,16.50
2019-04-26T09:41:21.121Z,26.82
2019-04-26T09:43:51.308Z,21.85
2019-04-26T09:46:27.530Z,19.35
2019-04-26T09:49:07.071Z,20.88
2019-04-26T09:51:39.057Z,19.65
2019-04-26T09:54:05.439Z,19.20
2019-04-26T09:56:34.102Z,22.00
2019-04-26T09:59:05.706Z,20.65
2019-04-26T10:01:33.995Z,18.00
2019-04-26T10:04:02.615Z,18.73
2019-04-26T10:06:31.241Z,21.65
2019-04-26T10:08:59.857Z,17.55
2019-04-26T10:11:30.124Z,20.00
2019-04-26T10:14:00.384Z,18.80
2019-04-26T10:16:33.598Z,19.52
2019-04-26T10:19:02.616Z,21.95
2019-04-26T10:21:31.151Z,18.07
2019-04-26T10:23:59.771Z,21.77
2019-04-26T10:26:29.839Z,19.00
2019-04-26T10:28:59.931Z,18.20
2019-04-26T10:31:28.542Z,21.23
2019-04-26T10:33:57.087Z,19.67
2019-04-26T10:36:29.692Z,18.95
2019-04-26T10:38:58.334Z,20.15
2019-04-26T10:41:26.848Z,22.52
2019-04-26T10:43:55.493Z,21.05
2019-04-26T10:46:24.466Z,24.07
2019-04-26T10:48:54.553Z,22.20
2019-04-26T10:51:25.105Z,20.75
2019-04-26T10:54:06.064Z,15.55
2019-04-26T10:56:42.391Z,20.52
2019-04-26T10:59:28.052Z,19.17
2019-04-26T11:01:56.832Z,26.35
2019-04-26T11:04:28.171Z,30.85
2019-04-26T11:06:58.137Z,16.52
2019-04-26T11:09:27.175Z,16.82
2019-04-26T11:11:55.806Z,28.60
2019-04-26T11:14:24.515Z,17.65
2019-04-26T11:16:53.925Z,16.73
2019-04-26T11:19:22.569Z,24.00
2019-04-26T11:21:54.875Z,26.82
2019-04-26T11:24:21.484Z,21.82
2019-04-26T11:26:50.132Z,23.90
2019-04-26T11:29:18.784Z,22.65
2019-04-26T11:31:49.083Z,20.02
2019-04-26T11:34:19.179Z,26.85
2019-04-26T11:36:48.122Z,20.45
2019-04-26T11:39:16.908Z,19.85
2019-04-26T11:41:45.514Z,20.72
2019-04-26T11:44:14.318Z,24.77
2019-04-26T11:46:44.976Z,29.27
2019-04-26T11:49:13.135Z,27.60
2019-04-26T11:51:41.743Z,21.93
2019-04-26T11:54:10.383Z,21.55
2019-04-26T11:56:39.039Z,25.95
2019-04-26T11:59:07.677Z,17.55
2019-04-26T12:01:36.668Z,22.22
2019-04-26T12:04:08.488Z,23.05
2019-04-26T12:06:44.549Z,25.25
2019-04-26T12:09:31.132Z,25.08
2019-04-26T12:12:04.780Z,25.95
2019-04-26T12:14:33.456Z,22.77
2019-04-26T12:17:01.321Z,19.73
2019-04-26T12:19:30.250Z,28.17
2019-04-26T12:21:58.887Z,26.27
2019-04-26T12:24:29.603Z,20.88
2019-04-26T12:26:57.861Z,28.07
2019-04-26T12:29:26.468Z,29.87
2019-04-26T12:31:55.104Z,25.97
2019-04-26T12:34:23.725Z,20.77
2019-04-26T12:36:52.346Z,22.70
2019-04-26T12:39:21.519Z,30.77
2019-04-26T12:41:50.141Z,18.90
2019-04-26T12:44:18.813Z,25.60
2019-04-26T12:47:07.129Z,26.68
2019-04-26T12:49:35.748Z,18.85
2019-04-26T12:52:04.369Z,13.93
2019-04-26T12:54:33.016Z,23.77
2019-04-26T12:57:05.744Z,19.65
2019-04-26T12:59:43.516Z,20.17
2019-04-26T13:02:05.909Z,26.45
2019-04-26T13:04:36.260Z,20.85
2019-04-26T13:07:23.444Z,22.02
2019-04-26T13:10:02.227Z,22.07
2019-04-26T13:12:32.457Z,25.72
2019-04-26T13:15:22.055Z,23.42
2019-04-26T13:17:52.615Z,24.63
2019-04-26T13:20:24.465Z,30.02
2019-04-26T13:22:54.277Z,22.07
2019-04-26T13:25:26.459Z,23.22
2019-04-26T13:27:52.049Z,22.00
2019-04-26T13:30:32.421Z,22.55
2019-04-26T13:32:53.482Z,26.52
2019-04-26T13:35:21.365Z,25.50
2019-04-26T13:37:50.001Z,26.10
2019-04-26T13:40:19.286Z,27.87
2019-04-26T13:42:51.438Z,31.27
2019-04-26T13:45:20.119Z,26.48
2019-04-26T13:47:52.862Z,29.52
2019-04-26T13:50:26.694Z,27.65
2019-04-26T13:52:53.465Z,30.57
2019-04-26T13:55:25.424Z,29.30
2019-04-26T13:57:52.515Z,23.65
2019-04-26T14:00:23.134Z,30.32
2019-04-26T14:02:51.712Z,31.73
2019-04-26T14:05:20.403Z,25.92
2019-04-26T14:07:48.957Z,17.25
2019-04-26T14:10:17.745Z,21.50
2019-04-26T14:12:50.034Z,27.70
2019-04-26T14:15:17.462Z,25.17
2019-04-26T14:17:46.032Z,38.85
2019-04-26T14:20:15.090Z,26.25
2019-04-26T14:22:46.866Z,31.48
2019-04-26T14:25:17.089Z,34.30
2019-04-26T14:27:51.509Z,34.67
2019-04-26T14:30:20.475Z,24.23
2019-04-26T14:32:49.063Z,27.82
2019-04-26T14:35:17.638Z,25.85
2019-04-26T14:37:49.774Z,21.97
2019-04-26T14:40:17.681Z,25.88
2019-04-26T14:42:48.587Z,21.60
2019-04-26T14:45:23.828Z,36.95
2019-04-26T14:47:47.875Z,27.30
2019-04-26T14:50:16.641Z,29.07
2019-04-26T14:52:45.195Z,24.25
2019-04-26T14:55:16.582Z,24.02
2019-04-26T14:57:46.734Z,34.88
2019-04-26T15:00:16.799Z,27.80
2019-04-26T15:03:03.268Z,34.55
2019-04-26T15:05:38.297Z,28.80
2019-04-26T15:08:09.537Z,31.80
2019-04-26T15:10:45.926Z,27.25
2019-04-26T15:13:15.328Z,32.63
2019-04-26T15:15:38.035Z,31.60
2019-04-26T15:18:06.653Z,27.65
2019-04-26T15:20:35.268Z,23.20
2019-04-26T15:23:03.917Z,31.20
2019-04-26T15:25:33.593Z,26.42
2019-04-26T15:28:02.568Z,19.52
2019-04-26T15:30:34.643Z,26.50
2019-04-26T15:33:03.164Z,26.95
2019-04-26T15:35:35.603Z,35.17
2019-04-26T15:38:03.704Z,20.95
2019-04-26T15:40:49.225Z,27.93
2019-04-26T15:43:28.236Z,28.25
2019-04-26T15:46:02.327Z,24.10
2019-04-26T15:48:42.993Z,22.50
2019-04-26T15:51:13.468Z,28.15
2019-04-26T15:53:44.837Z,27.87
2019-04-26T15:56:14.622Z,29.82
2019-04-26T15:58:47.920Z,23.85
2019-04-26T16:01:13.921Z,22.90
2019-04-26T16:03:44.585Z,29.57
2019-04-26T16:06:13.106Z,33.35
2019-04-26T16:08:43.763Z,34.30
2019-04-26T16:11:12.492Z,27.93
2019-04-26T16:13:45.103Z,27.73
2019-04-26T16:16:12.600Z,25.00
2019-04-26T16:18:43.099Z,24.65
2019-04-26T16:21:17.675Z,34.45
2019-04-26T16:23:51.148Z,30.95
2019-04-26T16:26:15.318Z,34.60
2019-04-26T16:28:48.642Z,29.20
2019-04-26T16:31:21.704Z,26.27
2019-04-26T16:36:36.649Z,30.23
2019-04-26T16:39:03.291Z,27.30
2019-04-26T16:41:37.743Z,29.85
2019-04-26T16:44:02.780Z,26.27
2019-04-26T16:46:33.314Z,33.55
2019-04-26T16:51:34.107Z,28.57
2019-04-26T16:54:07.433Z,38.83
2019-04-26T16:56:33.649Z,26.05
2019-04-26T16:59:03.233Z,24.12
2019-04-26T17:00:46.861Z,29.75
2019-04-26T17:01:33.394Z,23.55
2019-04-26T17:04:04.161Z,29.18
2019-04-26T17:06:32.494Z,30.08
2019-04-26T17:09:05.016Z,22.75
2019-04-26T17:11:35.050Z,29.55
2019-04-26T17:14:04.909Z,43.15
2019-04-26T17:16:34.709Z,31.55
2019-04-26T17:19:02.497Z,31.82
2019-04-26T17:21:34.594Z,32.30
2019-04-26T17:24:05.885Z,29.82
2019-04-26T17:26:36.748Z,31.45
2019-04-26T17:29:05.646Z,32.45
2019-04-26T17:31:34.338Z,26.80
2019-04-26T17:34:03.550Z,29.00
2019-04-26T17:36:34.527Z,35.05
2019-04-26T17:39:04.531Z,40.43
2019-04-26T17:41:33.431Z,36.45
2019-04-26T17:44:08.026Z,35.03
2019-04-26T17:46:32.619Z,36.23
2019-04-26T17:49:01.591Z,33.10
2019-04-26T17:51:35.224Z,35.55
2019-04-26T17:54:21.045Z,31.75
2019-04-26T17:56:35.359Z,37.95
2019-04-26T17:59:03.278Z,39.00
2019-04-26T18:01:42.931Z,37.20
2019-04-26T18:04:02.284Z,26.60
2019-04-26T18:06:31.062Z,40.85
2019-04-26T18:08:59.696Z,25.48
2019-04-26T18:11:28.308Z,31.90
2019-04-26T18:13:56.969Z,28.70
2019-04-26T18:16:29.374Z,39.98
2019-04-26T18:18:58.017Z,47.53
2019-04-26T18:21:28.269Z,48.95
2019-04-26T18:23:57.289Z,46.23
2019-04-26T18:26:26.173Z,38.65
2019-04-26T18:28:55.344Z,32.48
2019-04-26T18:31:28.614Z,31.87
2019-04-26T18:34:00.596Z,30.68
2019-04-26T18:36:27.753Z,29.37
2019-04-26T18:38:55.465Z,36.00
2019-04-26T18:41:28.713Z,43.02
2019-04-26T18:43:59.764Z,33.35
2019-04-26T18:46:35.694Z,30.97
2019-04-26T18:49:04.356Z,35.98
2019-04-26T18:51:33.445Z,30.10
2019-04-26T18:54:09.244Z,33.02
2019-04-26T18:56:40.455Z,40.10
2019-04-26T18:59:11.759Z,53.58
2019-04-26T19:01:41.806Z,39.80
2019-04-26T19:04:13.094Z,33.78
2019-04-26T19:06:42.185Z,33.18
2019-04-26T19:09:10.111Z,42.58
2019-04-26T19:11:48.631Z,47.95
2019-04-26T19:14:32.292Z,38.08
2019-04-26T19:17:14.461Z,39.35
2019-04-26T19:20:02.088Z,38.08
2019-04-26T19:22:32.225Z,32.80
2019-04-26T19:25:02.045Z,34.45
2019-04-26T19:27:33.276Z,36.93
2019-04-26T19:30:08.690Z,31.55
2019-04-26T19:32:35.413Z,34.58
2019-04-26T19:35:07.602Z,36.48
2019-04-26T19:37:36.759Z,34.40
2019-04-26T19:40:08.865Z,34.10
2019-04-26T19:42:35.547Z,40.70
2019-04-26T19:45:14.208Z,42.50
2019-04-26T19:47:51.960Z,39.05
2019-04-26T19:50:25.531Z,44.08
2019-04-26T19:53:01.863Z,50.98
2019-04-26T19:55:41.811Z,44.03
2019-04-26T19:58:16.694Z,41.65
2019-04-26T20:00:46.618Z,46.15
2019-04-26T20:03:16.738Z,39.67
2019-04-26T20:05:44.315Z,44.05
2019-04-26T20:08:13.308Z,41.60
2019-04-26T20:10:45.364Z,37.78
2019-04-26T20:13:15.075Z,43.38
2019-04-26T20:15:42.729Z,32.48
2019-04-26T20:18:12.269Z,27.98
2019-04-26T20:20:41.397Z,39.08
2019-04-26T20:23:12.253Z,38.13
2019-04-26T20:25:40.776Z,35.15
2019-04-26T20:28:09.386Z,33.25
2019-04-26T20:30:48.401Z,33.18
2019-04-26T20:33:17.289Z,33.05
2019-04-26T20:35:45.863Z,36.23
2019-04-26T20:38:14.411Z,31.25
2019-04-26T20:40:43.422Z,45.25
2019-04-26T20:43:23.807Z,33.10
2019-04-26T20:46:07.983Z,30.85
2019-04-26T20:48:14.190Z,37.38
2019-04-26T20:50:44.479Z,28.87
2019-04-26T20:53:13.093Z,29.67
2019-04-26T20:55:43.411Z,32.53
2019-04-26T20:58:12.031Z,29.75
2019-04-26T21:00:53.693Z,32.70
2019-04-26T21:03:23.170Z,31.80
2019-04-26T21:05:46.216Z,29.35
2019-04-26T21:08:12.551Z,38.05
2019-04-26T21:10:41.796Z,28.50
2019-04-26T21:13:12.214Z,33.48
2019-04-26T21:15:53.391Z,26.75
2019-04-26T21:18:12.339Z,37.25
2019-04-26T21:20:42.515Z,30.35
2019-04-26T21:23:13.246Z,32.13
2019-04-26T21:25:43.502Z,38.53
2019-04-26T21:28:33.026Z,34.80
2019-04-26T21:31:18.214Z,31.37
2019-04-26T21:33:48.466Z,33.53
2019-04-26T21:36:18.687Z,31.55
2019-04-26T21:38:59.357Z,25.35
2019-04-26T21:41:35.708Z,25.27
2019-04-26T21:44:07.575Z,22.58
2019-04-26T21:46:35.779Z,28.07
2019-04-26T21:49:04.405Z,27.35
2019-04-26T21:51:34.022Z,20.05
2019-04-26T21:54:03.752Z,25.00
2019-04-26T21:56:33.746Z,25.30
2019-04-26T21:59:03.684Z,26.25
2019-04-26T22:01:33.122Z,32.25
2019-04-26T22:04:03.438Z,31.45
2019-04-26T22:06:33.450Z,26.17
2019-04-26T22:09:05.169Z,35.83
2019-04-26T22:11:34.162Z,27.50
2019-04-26T22:14:13.178Z,24.37
2019-04-26T22:16:41.825Z,30.00
2019-04-26T22:19:16.057Z,32.67
2019-04-26T22:22:05.797Z,30.90
2019-04-26T22:24:37.442Z,27.13
2019-04-26T22:27:05.993Z,28.50
2019-04-26T22:29:34.595Z,32.17
2019-04-26T22:32:03.744Z,22.00
2019-04-26T22:34:32.874Z,32.63
2019-04-26T22:37:09.879Z,31.48
2019-04-26T22:39:39.646Z,30.72
2019-04-26T22:42:03.045Z,31.85
2019-04-26T22:44:34.618Z,26.27
2019-04-26T22:47:08.346Z,31.70
2019-04-26T22:49:41.812Z,26.17
2019-04-26T22:52:11.109Z,30.00
2019-04-26T22:54:42.255Z,29.75
2019-04-26T22:57:12.601Z,27.00
2019-04-26T22:59:43.305Z,25.60
2019-04-26T23:02:11.005Z,23.83
2019-04-26T23:04:39.911Z,23.45
2019-04-26T23:07:09.445Z,30.17
2019-04-26T23:09:37.989Z,26.62
2019-04-26T23:12:27.955Z,28.25
2019-04-26T23:15:13.638Z,24.70
2019-04-26T23:17:59.239Z,30.60
2019-04-26T23:20:37.849Z,21.33
2019-04-26T23:23:08.590Z,29.87
2019-04-26T23:25:37.533Z,23.77
2019-04-26T23:28:06.149Z,26.60
2019-04-26T23:30:34.862Z,22.02
2019-04-26T23:33:03.843Z,25.92
2019-04-26T23:35:43.078Z,24.45
2019-04-26T23:38:07.171Z,19.50
2019-04-26T23:40:35.718Z,25.92
2019-04-26T23:43:04.589Z,19.40
2019-04-26T23:45:33.427Z,24.25
2019-04-26T23:48:03.528Z,25.43
2019-04-26T23:50:34.098Z,22.50
2019-04-26T23:53:03.143Z,30.12
2019-04-26T23:55:31.693Z,25.85
2019-04-26T23:58:00.274Z,27.45
